This is the latest recevied weather packets stored in our database for station/object KF0KFL-13. If no packets are shown the sender has not sent any weather packets the latest 1 day(s).
| Time | Temp. | Humidity | Pressure | Rain* | Wind** | Luminosity | Snow |
|---|---|---|---|---|---|---|---|
| 1777998436 | 7.22° C | 44% | 1010.4 hPa | 0 mm | 1.34 m/s, 2° | 387 W/m² | - |
| 1777997236 | 7.78° C | 42% | 1010.3 hPa | 0 mm | 1.34 m/s, 5° | 172 W/m² | - |
| 1777996006 | 7.22° C | 44% | 1010.6 hPa | 0 mm | 2.24 m/s, 4° | 186 W/m² | - |
| 1777994806 | 6.67° C | 46% | 1010.3 hPa | 0 mm | 1.34 m/s, 19° | 59 W/m² | - |
| 1777993576 | 6.67° C | 45% | 1010.1 hPa | 0 mm | 1.79 m/s, 14° | 46 W/m² | - |
| 1777992376 | 6.11° C | 46% | 1010 hPa | 0 mm | 1.79 m/s, 9° | 42 W/m² | - |
| 1777991146 | 5.56° C | 47% | 1009.8 hPa | 0 mm | 1.34 m/s, 25° | 47 W/m² | - |
| 1777989916 | 5° C | 47% | 1009.8 hPa | 0 mm | 0.89 m/s, 30° | 52 W/m² | - |
| 1777988715 | 4.44° C | 49% | 1009.7 hPa | 0 mm | 1.34 m/s, 27° | 37 W/m² | - |
| 1777987485 | 3.89° C | 50% | 1009.5 hPa | 0 mm | 1.34 m/s, 2° | 35 W/m² | - |
| 1777986255 | 3.89° C | 51% | 1009.5 hPa | 0 mm | 1.34 m/s, 18° | 78 W/m² | - |
| 1777985055 | 3.33° C | 57% | 1009 hPa | 0 mm | 1.34 m/s, 16° | 29 W/m² | - |
| 1777983855 | 2.78° C | 59% | 1008.8 hPa | 0 mm | 1.34 m/s, 16° | 28 W/m² | - |
| 1777982625 | 2.78° C | 62% | 1008.7 hPa | 0 mm | 1.34 m/s, 8° | 21 W/m² | - |
| 1777981425 | 2.78° C | 65% | 1008.2 hPa | 0 mm | 1.34 m/s, 13° | 15 W/m² | - |
| 1777980195 | 2.22° C | 66% | 1008 hPa | 0 mm | 0.89 m/s, 33° | 9 W/m² | - |
| 1777978965 | 2.78° C | 67% | 1007.8 hPa | 0 mm | 0.89 m/s, 11° | 2 W/m² | - |
| 1777977735 | 2.78° C | 65% | 1007.5 hPa | 0 mm | 0.89 m/s, 20° | 0 W/m² | - |
| 1777976505 | 3.33° C | 65% | 1007.5 hPa | 0 mm | 1.34 m/s, 17° | 0 W/m² | - |
| 1777975275 | 3.33° C | 64% | 1007.4 hPa | 0 mm | 1.79 m/s, 8° | 0 W/m² | - |
| 1777974045 | 3.33° C | 64% | 1007.2 hPa | 0 mm | 1.34 m/s, 7° | 0 W/m² | - |
| 1777972815 | 3.89° C | 62% | 1007.2 hPa | 0 mm | 1.34 m/s, 6° | 0 W/m² | - |
| 1777971585 | 3.89° C | 61% | 1006.9 hPa | 0 mm | 1.79 m/s, 357° | 0 W/m² | - |
| 1777970387 | 4.44° C | 61% | 1006.6 hPa | 0 mm | 0.89 m/s, 22° | 0 W/m² | - |
| 1777970355 | 4.44° C | 61% | 1006.6 hPa | 0 mm | 0.89 m/s, 22° | 0 W/m² | - |
* Rain latest hour (hover to see other rain measurements)
** Current wind speed in m/s (hover to see current wind gust speed)